This is the latest recevied weather packets stored in our database for station/object K7TUS-6. If no packets are shown the sender has not sent any weather packets the latest 1 day(s).
| Time | Temp. | Humidity | Pressure | Rain* | Wind** | Luminosity | Snow |
|---|---|---|---|---|---|---|---|
| 1778021404 | 7.22° C | 32% | 977 hPa | - | 0.89 m/s, 278° | - | - |
| 1778021103 | 7.22° C | 34% | 977.3 hPa | - | 3.58 m/s, 172° | - | - |
| 1778020809 | 7.22° C | 32% | 977.4 hPa | - | 3.58 m/s, 164° | - | - |
| 1778020508 | 7.78° C | 29% | 977 hPa | - | 2.68 m/s, 102° | - | - |
| 1778020216 | 7.78° C | 35% | 976.9 hPa | - | 1.34 m/s, 93° | - | - |
| 1778019907 | 7.22° C | 32% | 976.5 hPa | - | 0.89 m/s, 75° | - | - |
| 1778019606 | 7.22° C | 32% | 976.6 hPa | - | 1.79 m/s, 29° | - | - |
| 1778019306 | 7.22° C | 32% | 976.6 hPa | - | 1.79 m/s, 29° | - | - |
| 1778019005 | 7.78° C | 32% | 976.8 hPa | - | 1.79 m/s, 16° | - | - |
| 1778018106 | 7.78° C | 32% | 977 hPa | - | 3.13 m/s, 151° | - | - |
| 1778017806 | 7.22° C | 33% | 977.1 hPa | - | 3.13 m/s, 161° | - | - |
| 1778017505 | 7.22° C | 31% | 977.8 hPa | - | 4.47 m/s, 158° | - | - |
| 1778017204 | 7.78° C | 32% | 976.8 hPa | - | 2.68 m/s, 69° | - | - |
| 1778016904 | 7.78° C | 36% | 976.1 hPa | - | 3.13 m/s, 148° | - | - |
| 1778016603 | 7.22° C | 36% | 975.9 hPa | - | 2.68 m/s, 107° | - | - |
| 1778016309 | 6.67° C | 33% | 976 hPa | - | 4.47 m/s, 109° | - | - |
| 1778016008 | 6.11° C | 36% | 976.5 hPa | - | 3.13 m/s, 66° | - | - |
| 1778015407 | 6.11° C | 38% | 977 hPa | - | 3.58 m/s, 78° | - | - |
| 1778015105 | 5.56° C | 39% | 977.1 hPa | - | 2.68 m/s, 51° | - | - |
| 1778014805 | 4.44° C | 37% | 976.8 hPa | - | 7.6 m/s, 162° | - | - |
| 1778014510 | 3.89° C | 39% | 977.6 hPa | - | 8.05 m/s, 170° | - | - |
| 1778013904 | 5.56° C | 48% | 976.4 hPa | - | 3.58 m/s, 99° | - | - |
| 1778013603 | 4.44° C | 44% | 975.9 hPa | - | 8.05 m/s, 162° | - | - |
| 1778013302 | 4.44° C | 45% | 977 hPa | - | 7.15 m/s, 127° | - | - |
| 1778013008 | 3.89° C | 45% | 977.1 hPa | - | 4.92 m/s, 173° | - | - |
* Rain since midnight (hover to see other rain measurements)
** Current wind speed in m/s (hover to see current wind gust speed)